Flugplatz Donauwörth-Genderkingen

Für EDMQ sind keine METAR/TAF Berichte vorhanden.
Es werden die Flugwettermeldungen vom Flugplatz Neuburg Airport in 26 km Entfernung angezeigt.

Bericht für ETSN

vom 23.02. um 22:20 UTC

Wind 22 kt aus 250° in Böen 32 kt

Sichtweite 10 km oder mehr

bedeckt in 2800 ft

Temperatur 12.0°C

Taupunkt 8.0°C

Luftfeuchtigkeit 76%

Luftdruck 1018 hPa

ETSN 232220Z 25022G32KT 9999 OVC028 12/08 Q1018 RERA BLU

Prognose für ETSN

vom 23.02. um 00:00 UTC

Am 23.02. zwischen 00:00 UTC und 00:00 UTC

Wind 20 kt aus 260° in Böen 35 kt

Sichtweite 8000 m

keine signifikanten Wettererscheinungen

aufgelockert bewölkt in 2000 ft

aufgebrochene Bewölkung in 3000 ft


Am 23.02. zwischen 00:00 UTC und 00:00 UTC zeitweise

Wind 25 kt aus 270° in Böen 40 kt

Sichtweite 4000 m

Regen

aufgebrochene Bewölkung in 2000 ft

bedeckt in 3000 ft


Am 23.02. zwischen 00:00 und 00:00 UTC übergehend zu

Wind 15 kt aus 270° in Böen 25 kt

Sichtweite 8000 m

keine signifikanten Wettererscheinungen

aufgelockert bewölkt in 2000 ft

aufgebrochene Bewölkung in 3000 ft


Am 23.02. zwischen 00:00 UTC und 00:00 UTC zeitweise

Wind 10 kt aus 280°

Sichtweite 4000 m

Regen

aufgebrochene Bewölkung in 1200 ft

aufgebrochene Bewölkung in 2000 ft

TAF ETSN 232010Z 2321/2406 26020G35KT 8000 NSW SCT020 BKN030 TEMPO 2321/2323 27025G40KT 4000 RA BKN020 OVC030 BECMG 2322/2324 27015G25KT 8000 NSW SCT020 BKN030 TEMPO 2323/2406 28010KT 4000 RA BKN012 BKN020 BY ETGL
Impressum